createdAt,value
2023-01-15T00:00:31.495Z,90.61
2023-01-15T00:03:20.044Z,89.67
2023-01-15T00:06:08.520Z,89.88
2023-01-15T00:08:57.376Z,90.80
2023-01-15T00:11:47.180Z,90.07
2023-01-15T00:14:35.607Z,90.79
2023-01-15T00:17:24.105Z,90.35
2023-01-15T00:20:13.233Z,89.66
2023-01-15T00:23:01.716Z,88.86
2023-01-15T00:26:07.971Z,89.50
2023-01-15T00:28:57.940Z,89.72
2023-01-15T00:31:53.269Z,90.84
2023-01-15T00:34:41.733Z,91.81
2023-01-15T00:37:30.293Z,91.36
2023-01-15T00:40:20.419Z,92.20
2023-01-15T00:43:08.853Z,91.60
2023-01-15T00:45:58.636Z,90.94
2023-01-15T00:48:47.052Z,89.82
2023-01-15T00:51:35.629Z,90.32
2023-01-15T00:54:24.101Z,90.60
2023-01-15T00:57:12.527Z,88.76
2023-01-15T01:00:00.992Z,89.61
2023-01-15T01:02:50.835Z,89.64
2023-01-15T01:05:39.317Z,91.44
2023-01-15T01:08:27.904Z,91.96
2023-01-15T01:11:18.252Z,92.51
2023-01-15T01:14:06.771Z,94.04
2023-01-15T01:16:55.243Z,94.19
2023-01-15T01:19:45.333Z,94.39
2023-01-15T01:22:34.459Z,94.96
2023-01-15T01:25:23.084Z,95.53
2023-01-15T01:28:11.572Z,96.60
2023-01-15T01:31:00.025Z,97.37
2023-01-15T01:33:49.721Z,98.31
2023-01-15T01:36:41.448Z,98.45
2023-01-15T01:39:29.860Z,99.08
2023-01-15T01:42:19.201Z,98.09
2023-01-15T01:45:20.105Z,99.15
2023-01-15T01:48:08.729Z,98.44
2023-01-15T01:50:59.220Z,97.60
2023-01-15T01:53:49.158Z,98.67
2023-01-15T01:56:37.878Z,99.09
2023-01-15T01:59:27.304Z,100.00
2023-01-15T02:02:16.550Z,100.00
2023-01-15T02:05:05.904Z,100.00
2023-01-15T02:07:54.327Z,100.00
2023-01-15T02:10:44.249Z,100.00
2023-01-15T02:13:36.889Z,100.00
2023-01-15T02:16:27.717Z,100.00
2023-01-15T02:19:24.030Z,100.00
2023-01-15T02:22:20.610Z,100.00
2023-01-15T02:25:13.372Z,100.00
2023-01-15T02:28:07.677Z,100.00
2023-01-15T02:31:00.712Z,100.00
2023-01-15T02:33:51.050Z,100.00
2023-01-15T02:36:43.182Z,100.00
2023-01-15T02:39:32.707Z,100.00
2023-01-15T02:42:22.239Z,100.00
2023-01-15T02:45:13.815Z,100.00
2023-01-15T02:48:06.887Z,100.00
2023-01-15T02:50:57.581Z,100.00
2023-01-15T02:53:49.628Z,100.00
2023-01-15T02:56:38.478Z,100.00
2023-01-15T02:59:30.679Z,100.00
2023-01-15T03:02:22.373Z,100.00
2023-01-15T03:05:12.976Z,100.00
2023-01-15T03:08:03.536Z,100.00
2023-01-15T03:10:59.955Z,100.00
2023-01-15T03:13:51.904Z,100.00
2023-01-15T03:16:42.893Z,100.00
2023-01-15T03:19:39.577Z,99.93
2023-01-15T03:22:30.025Z,98.35
2023-01-15T03:25:22.517Z,98.88
2023-01-15T03:28:12.999Z,96.50
2023-01-15T03:31:01.786Z,95.79
2023-01-15T03:33:50.356Z,95.73
2023-01-15T03:36:40.189Z,95.65
2023-01-15T03:39:28.901Z,95.82
2023-01-15T03:42:24.362Z,96.09
2023-01-15T03:45:15.647Z,95.80
2023-01-15T03:48:11.423Z,97.30
2023-01-15T03:51:04.703Z,97.88
2023-01-15T03:53:56.977Z,98.38
2023-01-15T03:56:55.288Z,99.92
2023-01-15T03:59:48.170Z,100.00
2023-01-15T04:02:38.557Z,100.00
2023-01-15T04:05:28.133Z,100.00
2023-01-15T04:08:18.073Z,100.00
2023-01-15T04:11:08.055Z,100.00
2023-01-15T04:13:56.493Z,100.00
2023-01-15T04:16:44.969Z,100.00
2023-01-15T04:19:33.441Z,100.00
2023-01-15T04:22:21.924Z,100.00
2023-01-15T04:25:11.501Z,100.00
2023-01-15T04:28:01.569Z,100.00
2023-01-15T04:30:50.163Z,100.00
2023-01-15T04:33:39.961Z,100.00
2023-01-15T04:36:28.549Z,100.00
2023-01-15T04:39:16.982Z,100.00
2023-01-15T04:42:23.163Z,100.00
2023-01-15T04:45:13.162Z,100.00
2023-01-15T04:48:01.616Z,100.00
2023-01-15T04:50:50.147Z,100.00
2023-01-15T04:53:38.666Z,100.00
2023-01-15T04:56:27.146Z,100.00
2023-01-15T04:59:16.886Z,100.00
2023-01-15T05:02:07.230Z,100.00
2023-01-15T05:04:55.753Z,100.00
2023-01-15T05:07:44.219Z,100.00
2023-01-15T05:10:32.691Z,100.00
2023-01-15T05:13:21.267Z,100.00
2023-01-15T05:16:14.790Z,100.00
2023-01-15T05:19:07.103Z,100.00
2023-01-15T05:21:55.632Z,100.00
2023-01-15T05:24:44.092Z,100.00
2023-01-15T05:27:32.623Z,100.00
2023-01-15T05:30:21.118Z,100.00
2023-01-15T05:33:09.544Z,100.00
2023-01-15T05:36:04.658Z,100.00
2023-01-15T05:38:54.396Z,100.00
2023-01-15T05:41:52.698Z,100.00
2023-01-15T05:44:41.414Z,100.00
2023-01-15T05:47:29.909Z,100.00
2023-01-15T05:50:18.420Z,100.00
2023-01-15T05:53:08.457Z,100.00
2023-01-15T05:55:56.926Z,100.00
2023-01-15T05:58:45.561Z,100.00
2023-01-15T06:01:34.250Z,100.00
2023-01-15T06:04:24.647Z,100.00
2023-01-15T06:07:13.099Z,100.00
2023-01-15T06:10:02.909Z,100.00
2023-01-15T06:12:51.356Z,100.00
2023-01-15T06:15:39.956Z,100.00
2023-01-15T06:18:28.562Z,100.00
2023-01-15T06:21:17.232Z,100.00
2023-01-15T06:24:06.622Z,100.00
2023-01-15T06:26:56.447Z,100.00
2023-01-15T06:29:44.906Z,100.00
2023-01-15T06:32:33.388Z,100.00
2023-01-15T06:35:21.909Z,100.00
2023-01-15T06:38:10.403Z,100.00
2023-01-15T06:41:00.039Z,100.00
2023-01-15T06:44:07.395Z,100.00
2023-01-15T06:47:13.212Z,100.00
2023-01-15T06:50:02.433Z,100.00
2023-01-15T06:52:50.998Z,100.00
2023-01-15T06:55:39.473Z,100.00
2023-01-15T06:58:27.939Z,100.00
2023-01-15T07:01:17.897Z,100.00
2023-01-15T07:04:06.632Z,100.00
2023-01-15T07:06:55.063Z,100.00
2023-01-15T07:09:43.551Z,100.00
2023-01-15T07:12:31.947Z,100.00
2023-01-15T07:15:20.392Z,100.00
2023-01-15T07:18:10.156Z,100.00
2023-01-15T07:20:59.180Z,100.00
2023-01-15T07:23:47.626Z,100.00
2023-01-15T07:26:36.103Z,100.00
2023-01-15T07:29:24.629Z,100.00
2023-01-15T07:32:13.487Z,100.00
2023-01-15T07:35:03.339Z,100.00
2023-01-15T07:37:52.601Z,100.00
2023-01-15T07:40:41.068Z,100.00
2023-01-15T07:43:47.176Z,100.00
2023-01-15T07:46:53.113Z,100.00
2023-01-15T07:49:48.626Z,100.00
2023-01-15T07:52:38.497Z,100.00
2023-01-15T07:55:27.195Z,100.00
2023-01-15T07:58:15.617Z,100.00
2023-01-15T08:01:04.165Z,100.00
2023-01-15T08:03:52.678Z,100.00
2023-01-15T08:06:41.088Z,100.00
2023-01-15T08:09:31.363Z,100.00
2023-01-15T08:12:37.712Z,100.00
2023-01-15T08:15:27.623Z,100.00
2023-01-15T08:18:16.112Z,100.00
2023-01-15T08:21:04.924Z,100.00
2023-01-15T08:23:53.362Z,100.00
2023-01-15T08:26:43.216Z,100.00
2023-01-15T08:29:31.891Z,100.00
2023-01-15T08:32:20.343Z,100.00
2023-01-15T08:35:09.580Z,100.00
2023-01-15T08:37:57.988Z,100.00
2023-01-15T08:41:03.805Z,100.00
2023-01-15T08:43:53.568Z,100.00
2023-01-15T08:46:42.087Z,100.00
2023-01-15T08:49:30.618Z,100.00
2023-01-15T08:52:19.099Z,100.00
2023-01-15T08:55:08.705Z,100.00
2023-01-15T08:57:57.187Z,100.00
2023-01-15T09:00:48.483Z,100.00
2023-01-15T09:03:37.235Z,100.00
2023-01-15T09:06:26.291Z,100.00
2023-01-15T09:09:15.226Z,100.00
2023-01-15T09:12:04.425Z,100.00
2023-01-15T09:14:55.975Z,100.00
2023-01-15T09:17:50.916Z,100.00
2023-01-15T09:20:39.426Z,100.00
2023-01-15T09:23:28.572Z,100.00
2023-01-15T09:26:31.693Z,100.00
2023-01-15T09:29:20.174Z,100.00
2023-01-15T09:32:10.365Z,100.00
2023-01-15T09:35:00.247Z,100.00
2023-01-15T09:37:51.958Z,100.00
2023-01-15T09:40:48.751Z,100.00
2023-01-15T09:43:50.497Z,100.00
2023-01-15T09:46:43.566Z,100.00
2023-01-15T09:49:42.442Z,100.00
2023-01-15T09:52:43.912Z,100.00
2023-01-15T09:55:33.950Z,100.00
2023-01-15T09:58:28.730Z,100.00
2023-01-15T10:01:18.400Z,100.00
2023-01-15T10:04:10.918Z,100.00
2023-01-15T10:07:06.691Z,100.00
2023-01-15T10:10:00.803Z,100.00
2023-01-15T10:12:51.340Z,100.00
2023-01-15T10:15:43.473Z,100.00
2023-01-15T10:18:32.159Z,100.00
2023-01-15T10:21:30.847Z,100.00
2023-01-15T10:24:20.892Z,100.00
2023-01-15T10:27:19.539Z,100.00
2023-01-15T10:30:15.844Z,100.00
2023-01-15T10:33:12.609Z,100.00
2023-01-15T10:36:03.651Z,100.00
2023-01-15T10:38:57.766Z,100.00
2023-01-15T10:41:53.825Z,100.00
2023-01-15T10:44:49.911Z,100.00
2023-01-15T10:47:39.115Z,100.00
2023-01-15T10:50:28.213Z,100.00
2023-01-15T10:53:23.099Z,100.00
2023-01-15T10:56:15.031Z,100.00
2023-01-15T10:59:13.803Z,100.00
2023-01-15T11:02:05.106Z,100.00
2023-01-15T11:04:54.363Z,100.00
2023-01-15T11:08:06.440Z,100.00
2023-01-15T11:10:53.343Z,100.00
2023-01-15T11:13:59.462Z,100.00
2023-01-15T11:17:05.670Z,100.00
2023-01-15T11:19:55.567Z,100.00
2023-01-15T11:22:45.013Z,100.00
2023-01-15T11:25:34.128Z,100.00
2023-01-15T11:28:31.949Z,100.00
2023-01-15T11:31:20.913Z,100.00
2023-01-15T11:34:21.692Z,100.00
2023-01-15T11:37:12.149Z,100.00
2023-01-15T11:40:06.758Z,100.00
2023-01-15T11:43:12.885Z,100.00
2023-01-15T11:46:18.905Z,100.00
2023-01-15T11:49:27.776Z,100.00
2023-01-15T11:52:21.738Z,100.00
2023-01-15T11:55:13.596Z,100.00
2023-01-15T11:58:02.560Z,100.00
2023-01-15T12:00:52.904Z,100.00
2023-01-15T12:03:41.989Z,100.00
2023-01-15T12:06:31.162Z,100.00
2023-01-15T12:09:28.062Z,100.00
2023-01-15T12:12:25.137Z,100.00
2023-01-15T12:15:20.300Z,100.00
2023-01-15T12:18:23.235Z,100.00
2023-01-15T12:21:23.366Z,100.00
2023-01-15T12:24:26.087Z,100.00
2023-01-15T12:27:32.867Z,100.00
2023-01-15T12:30:28.128Z,100.00
2023-01-15T12:33:36.919Z,100.00
2023-01-15T12:36:30.711Z,100.00
2023-01-15T12:39:23.146Z,100.00
2023-01-15T12:42:35.664Z,100.00
2023-01-15T12:45:28.550Z,100.00
2023-01-15T12:48:22.228Z,99.09
2023-01-15T12:51:15.571Z,99.24
2023-01-15T12:54:07.884Z,98.55
2023-01-15T12:57:01.744Z,96.32
2023-01-15T12:59:56.609Z,95.74
2023-01-15T13:02:57.096Z,93.46
2023-01-15T13:05:48.740Z,91.48
2023-01-15T13:08:41.408Z,90.47
2023-01-15T13:11:29.942Z,90.06
2023-01-15T13:14:25.920Z,89.71
2023-01-15T13:17:21.309Z,88.94
2023-01-15T13:20:19.208Z,88.94
2023-01-15T13:23:10.701Z,88.10
2023-01-15T13:26:15.927Z,87.79
2023-01-15T13:29:13.447Z,88.54
2023-01-15T13:32:06.290Z,86.54
2023-01-15T13:34:59.146Z,86.35
2023-01-15T13:37:50.530Z,85.73
2023-01-15T13:40:40.823Z,85.13
2023-01-15T13:43:34.766Z,84.75
2023-01-15T13:46:23.247Z,83.93
2023-01-15T13:49:19.171Z,83.86
2023-01-15T13:52:21.766Z,84.29
2023-01-15T13:55:12.946Z,84.31
2023-01-15T13:58:01.523Z,84.98
2023-01-15T14:00:50.118Z,85.96
2023-01-15T14:03:39.446Z,85.36
2023-01-15T14:06:38.000Z,87.02
2023-01-15T14:09:32.107Z,85.31
2023-01-15T14:12:32.082Z,84.92
2023-01-15T14:15:30.989Z,86.73
2023-01-15T14:18:28.400Z,87.98
2023-01-15T14:21:27.274Z,88.80
2023-01-15T14:24:28.759Z,91.00
2023-01-15T14:27:27.600Z,92.58
2023-01-15T14:30:32.145Z,95.93
2023-01-15T14:33:28.265Z,99.16
2023-01-15T14:36:19.384Z,99.00
2023-01-15T14:39:23.938Z,99.65
2023-01-15T14:42:33.411Z,100.00
2023-01-15T14:45:26.712Z,99.06
2023-01-15T14:48:20.127Z,96.79
2023-01-15T14:51:11.253Z,95.78
2023-01-15T14:54:02.189Z,97.49
2023-01-15T14:56:52.617Z,96.42
2023-01-15T14:59:46.431Z,95.80
2023-01-15T15:02:38.553Z,94.46
2023-01-15T15:05:27.340Z,93.96
2023-01-15T15:08:17.754Z,95.33
2023-01-15T15:11:28.669Z,93.96
2023-01-15T15:14:17.515Z,91.48
2023-01-15T15:17:13.040Z,91.74
2023-01-15T15:20:16.658Z,91.75
2023-01-15T15:23:09.636Z,90.07
2023-01-15T15:26:00.032Z,90.26
2023-01-15T15:28:57.155Z,88.38
2023-01-15T15:31:48.177Z,88.26
2023-01-15T15:34:40.184Z,86.00
2023-01-15T15:37:30.141Z,82.74
2023-01-15T15:40:19.441Z,80.39
2023-01-15T15:43:32.629Z,81.79
2023-01-15T15:46:44.992Z,81.43
2023-01-15T15:49:40.440Z,79.66
2023-01-15T15:52:30.448Z,76.84
2023-01-15T15:55:20.259Z,76.76
2023-01-15T15:58:11.728Z,76.11
2023-01-15T16:01:00.495Z,75.64
2023-01-15T16:03:49.378Z,75.82
2023-01-15T16:06:38.509Z,75.79
2023-01-15T16:09:28.392Z,75.43
2023-01-15T16:12:18.632Z,75.50
2023-01-15T16:15:08.610Z,73.56
2023-01-15T16:17:57.830Z,74.10
2023-01-15T16:20:46.589Z,75.07
2023-01-15T16:23:35.266Z,72.68
2023-01-15T16:26:31.041Z,71.78
2023-01-15T16:29:21.075Z,72.67
2023-01-15T16:32:13.752Z,72.76
2023-01-15T16:35:06.829Z,73.68
2023-01-15T16:37:56.899Z,72.47
2023-01-15T16:40:46.402Z,71.70
2023-01-15T16:43:52.161Z,71.03
2023-01-15T16:46:51.016Z,71.09
2023-01-15T16:49:39.663Z,70.91
2023-01-15T16:52:50.780Z,70.78
2023-01-15T16:55:42.116Z,69.74
2023-01-15T16:58:38.166Z,69.92
2023-01-15T17:01:34.415Z,69.64
2023-01-15T17:04:28.533Z,69.33
2023-01-15T17:07:19.472Z,69.63
2023-01-15T17:10:20.250Z,68.49
2023-01-15T17:13:18.150Z,68.07
2023-01-15T17:16:17.871Z,67.13
2023-01-15T17:19:08.230Z,68.45
2023-01-15T17:21:56.695Z,67.98
2023-01-15T17:24:49.001Z,67.96
2023-01-15T17:27:37.471Z,68.05
2023-01-15T17:30:30.870Z,67.60
2023-01-15T17:33:21.677Z,67.35
2023-01-15T17:36:10.461Z,67.32
2023-01-15T17:38:58.899Z,67.88
2023-01-15T17:41:47.421Z,67.68
2023-01-15T17:44:35.897Z,67.53
2023-01-15T17:47:24.834Z,67.63
2023-01-15T17:50:15.432Z,67.71
2023-01-15T17:53:06.660Z,67.38
2023-01-15T17:56:12.560Z,68.11
2023-01-15T17:59:27.064Z,68.00
2023-01-15T18:02:34.399Z,67.89
2023-01-15T18:05:28.600Z,69.07
2023-01-15T18:08:18.764Z,68.03
2023-01-15T18:11:07.330Z,68.46
2023-01-15T18:13:56.043Z,68.55
2023-01-15T18:16:44.553Z,68.32
2023-01-15T18:19:33.111Z,67.23
2023-01-15T18:22:22.960Z,67.32
2023-01-15T18:25:12.207Z,67.01
2023-01-15T18:28:00.692Z,67.15
2023-01-15T18:30:49.394Z,67.92
2023-01-15T18:33:37.943Z,68.03
2023-01-15T18:36:26.493Z,67.45
2023-01-15T18:39:16.373Z,66.64
2023-01-15T18:42:22.438Z,67.55
2023-01-15T18:45:29.233Z,67.17
2023-01-15T18:48:17.715Z,68.05
2023-01-15T18:51:09.537Z,67.50
2023-01-15T18:53:58.008Z,67.27
2023-01-15T18:56:48.028Z,68.36
2023-01-15T18:59:36.618Z,67.19
2023-01-15T19:02:25.950Z,68.05
2023-01-15T19:05:16.984Z,68.20
2023-01-15T19:08:05.839Z,67.83
2023-01-15T19:10:54.413Z,68.49
2023-01-15T19:14:04.315Z,67.20
2023-01-15T19:17:10.297Z,67.33
2023-01-15T19:19:58.890Z,67.28
2023-01-15T19:23:05.739Z,67.12
2023-01-15T19:25:54.593Z,68.25
2023-01-15T19:28:44.530Z,67.59
2023-01-15T19:31:41.292Z,66.89
2023-01-15T19:34:34.248Z,67.31
2023-01-15T19:37:24.201Z,67.29
2023-01-15T19:40:16.251Z,66.99
2023-01-15T19:43:22.637Z,68.18
2023-01-15T19:46:41.300Z,67.42
2023-01-15T19:49:50.895Z,68.19
2023-01-15T19:52:41.128Z,66.63
2023-01-15T19:55:31.136Z,67.06
2023-01-15T19:58:19.929Z,67.47
2023-01-15T20:01:17.268Z,66.95
2023-01-15T20:04:06.363Z,67.02
2023-01-15T20:06:54.788Z,66.93
2023-01-15T20:09:43.859Z,65.86
2023-01-15T20:12:50.570Z,66.29
2023-01-15T20:15:41.019Z,66.40
2023-01-15T20:18:30.902Z,65.92
2023-01-15T20:21:19.662Z,66.24
2023-01-15T20:24:08.309Z,65.92
2023-01-15T20:26:56.846Z,66.17
2023-01-15T20:29:46.369Z,66.40
2023-01-15T20:32:35.169Z,66.42
2023-01-15T20:35:29.168Z,66.42
2023-01-15T20:38:18.919Z,66.97
2023-01-15T20:41:21.791Z,65.41
2023-01-15T20:44:28.221Z,65.93
2023-01-15T20:47:30.616Z,67.02
2023-01-15T20:50:19.376Z,65.36
2023-01-15T20:53:11.300Z,65.71
2023-01-15T20:55:59.965Z,65.37
2023-01-15T20:58:48.552Z,65.40
2023-01-15T21:01:37.191Z,66.75
2023-01-15T21:04:25.774Z,66.38
2023-01-15T21:07:14.236Z,64.82
2023-01-15T21:10:05.200Z,65.47
2023-01-15T21:12:54.183Z,65.12
2023-01-15T21:15:44.103Z,64.99
2023-01-15T21:18:35.599Z,65.01
2023-01-15T21:21:24.219Z,65.55
2023-01-15T21:24:12.727Z,65.57
2023-01-15T21:27:02.548Z,64.90
2023-01-15T21:29:57.325Z,65.27
2023-01-15T21:32:46.556Z,65.83
2023-01-15T21:35:35.048Z,65.06
2023-01-15T21:38:23.509Z,65.83
2023-01-15T21:41:13.602Z,65.74
2023-01-15T21:44:20.798Z,66.01
2023-01-15T21:47:10.981Z,66.27
2023-01-15T21:50:00.037Z,65.81
2023-01-15T21:52:49.279Z,66.05
2023-01-15T21:55:37.791Z,65.96
2023-01-15T21:58:26.284Z,66.06
2023-01-15T22:01:18.145Z,66.06
2023-01-15T22:04:07.489Z,66.47
2023-01-15T22:06:56.655Z,65.91
2023-01-15T22:09:45.249Z,66.77
2023-01-15T22:12:38.222Z,66.47
2023-01-15T22:15:26.859Z,67.17
2023-01-15T22:18:16.653Z,67.33
2023-01-15T22:21:07.452Z,67.13
2023-01-15T22:23:56.532Z,66.46
2023-01-15T22:26:49.224Z,66.44
2023-01-15T22:29:39.878Z,67.17
2023-01-15T22:32:28.341Z,65.86
2023-01-15T22:35:18.748Z,66.80
2023-01-15T22:38:07.194Z,66.22
2023-01-15T22:40:55.667Z,66.08
2023-01-15T22:43:44.098Z,65.81
2023-01-15T22:46:32.555Z,66.29
2023-01-15T22:49:21.343Z,66.43
2023-01-15T22:52:11.245Z,66.08
2023-01-15T22:54:59.700Z,65.99
2023-01-15T22:57:49.063Z,65.70
2023-01-15T23:00:37.576Z,66.02
2023-01-15T23:03:26.152Z,65.95
2023-01-15T23:06:15.016Z,66.26
2023-01-15T23:09:05.256Z,65.82
2023-01-15T23:11:53.807Z,65.06
2023-01-15T23:14:42.563Z,65.90
2023-01-15T23:17:31.015Z,65.31
2023-01-15T23:20:19.522Z,64.40
2023-01-15T23:23:08.011Z,64.77
2023-01-15T23:25:57.848Z,65.34
2023-01-15T23:28:46.344Z,65.08
2023-01-15T23:31:34.929Z,65.88
2023-01-15T23:34:23.669Z,65.02
2023-01-15T23:37:12.134Z,65.16
2023-01-15T23:40:00.592Z,65.36
2023-01-15T23:43:07.821Z,65.84
2023-01-15T23:46:14.044Z,66.05
2023-01-15T23:49:04.003Z,66.27
2023-01-15T23:51:52.463Z,66.30
2023-01-15T23:54:40.940Z,67.14
2023-01-15T23:57:29.359Z,67.25
